createdAt,value
2022-10-14T00:02:20.791Z,-23451.41
2022-10-14T00:04:47.297Z,-23454.53
2022-10-14T00:07:13.822Z,-23470.06
2022-10-14T00:09:42.168Z,-23476.38
2022-10-14T00:12:08.632Z,-23479.50
2022-10-14T00:14:35.137Z,-23480.97
2022-10-14T00:17:01.762Z,-23484.13
2022-10-14T00:19:28.527Z,-23461.56
2022-10-14T00:21:55.021Z,-23464.97
2022-10-14T00:24:21.585Z,-23478.53
2022-10-14T00:26:48.115Z,-23463.75
2022-10-14T00:29:18.933Z,-23447.53
2022-10-14T00:31:46.314Z,-23463.25
2022-10-14T00:34:15.816Z,-23470.78
2022-10-14T00:36:42.868Z,-23476.59
2022-10-14T00:39:09.960Z,-23479.50
2022-10-14T00:41:36.833Z,-23485.09
2022-10-14T00:44:03.348Z,-23451.88
2022-10-14T00:46:33.040Z,-23444.84
2022-10-14T00:49:03.570Z,-23450.91
2022-10-14T00:51:30.175Z,-23447.03
2022-10-14T00:53:56.958Z,-23442.44
2022-10-14T00:56:28.614Z,-23456.25
2022-10-14T00:58:56.060Z,-23466.91
2022-10-14T01:01:23.046Z,-23478.53
2022-10-14T01:03:50.961Z,-23483.38
2022-10-14T01:06:47.841Z,-23468.84
2022-10-14T01:09:20.842Z,-23454.06
2022-10-14T01:12:28.704Z,-23448.00
2022-10-14T01:14:59.931Z,-23450.91
2022-10-14T01:18:11.038Z,-23465.94
2022-10-14T01:21:15.063Z,-23441.72
2022-10-14T01:24:02.672Z,-23441.72
2022-10-14T01:26:47.581Z,-23434.19
2022-10-14T01:29:27.845Z,-23437.56
2022-10-14T01:32:02.909Z,-23443.41
2022-10-14T01:34:39.942Z,-23445.81
2022-10-14T01:37:15.272Z,-23447.75
2022-10-14T01:39:45.773Z,-23448.97
2022-10-14T01:42:18.253Z,-23446.53
2022-10-14T01:44:50.958Z,-23433.22
2022-10-14T01:47:21.162Z,-23430.31
2022-10-14T01:49:53.831Z,-23436.59
2022-10-14T01:52:27.748Z,-23437.81
2022-10-14T01:54:59.088Z,-23432.50
2022-10-14T01:57:29.220Z,-23432.00
2022-10-14T01:59:56.163Z,-23443.63
2022-10-14T02:02:24.773Z,-23432.50
2022-10-14T02:04:51.781Z,-23432.00
2022-10-14T02:07:34.573Z,-23438.06
2022-10-14T02:10:19.248Z,-23429.09
2022-10-14T02:12:56.784Z,-23422.78
2022-10-14T02:15:36.717Z,-23430.56
2022-10-14T02:18:10.088Z,-23426.91
2022-10-14T02:21:00.268Z,-23420.38
2022-10-14T02:23:32.285Z,-23442.44
2022-10-14T02:26:00.324Z,-23455.75
2022-10-14T02:28:29.052Z,-23463.50
2022-10-14T02:31:02.381Z,-23465.44
2022-10-14T02:33:33.831Z,-23451.63
2022-10-14T02:36:02.562Z,-23432.50
2022-10-14T02:38:31.198Z,-23425.22
2022-10-14T02:41:01.609Z,-23432.25
2022-10-14T02:43:28.116Z,-23449.47
2022-10-14T02:45:59.289Z,-23429.09
2022-10-14T02:48:25.917Z,-23435.88
2022-10-14T02:50:52.388Z,-23447.75
2022-10-14T02:53:19.017Z,-23449.94
2022-10-14T02:55:45.564Z,-23433.94
2022-10-14T02:58:12.081Z,-23427.66
2022-10-14T03:00:39.210Z,-23446.06
2022-10-14T03:03:05.706Z,-23455.28
2022-10-14T03:05:32.250Z,-23449.47
2022-10-14T03:07:58.834Z,-23449.94
2022-10-14T03:10:25.399Z,-23440.50
2022-10-14T03:12:51.908Z,-23432.50
2022-10-14T03:15:19.098Z,-23428.38
2022-10-14T03:17:45.587Z,-23433.22
2022-10-14T03:20:12.343Z,-23445.81
2022-10-14T03:22:39.233Z,-23448.47
2022-10-14T03:25:06.405Z,-23440.50
2022-10-14T03:27:32.913Z,-23447.53
2022-10-14T03:29:59.500Z,-23441.22
2022-10-14T03:32:26.081Z,-23443.63
2022-10-14T03:34:52.551Z,-23432.72
2022-10-14T03:37:19.206Z,-23437.09
2022-10-14T03:39:45.690Z,-23444.38
2022-10-14T03:42:12.206Z,-23449.94
2022-10-14T03:44:39.226Z,-23459.41
2022-10-14T03:47:05.869Z,-23441.94
2022-10-14T03:49:32.388Z,-23442.44
2022-10-14T03:51:58.998Z,-23440.72
2022-10-14T03:54:25.466Z,-23434.91
2022-10-14T03:56:51.978Z,-23433.22
2022-10-14T03:59:18.665Z,-23428.38
2022-10-14T04:01:45.202Z,-23436.38
2022-10-14T04:04:11.794Z,-23441.47
2022-10-14T04:06:38.508Z,-23443.16
2022-10-14T04:09:05.417Z,-23437.34
2022-10-14T04:11:31.918Z,-23432.00
2022-10-14T04:13:59.376Z,-23435.41
2022-10-14T04:16:27.143Z,-23436.84
2022-10-14T04:18:54.313Z,-23426.91
2022-10-14T04:21:21.106Z,-23433.47
2022-10-14T04:23:47.754Z,-23436.84
2022-10-14T04:26:14.865Z,-23445.09
2022-10-14T04:28:41.588Z,-23452.84
2022-10-14T04:31:08.357Z,-23443.88
2022-10-14T04:33:35.198Z,-23441.22
2022-10-14T04:36:04.436Z,-23433.47
2022-10-14T04:38:31.374Z,-23436.59
2022-10-14T04:40:58.228Z,-23439.03
2022-10-14T04:43:24.912Z,-23442.66
2022-10-14T04:45:51.827Z,-23448.47
2022-10-14T04:48:18.496Z,-23441.22
2022-10-14T04:50:45.192Z,-23444.38
2022-10-14T04:53:13.698Z,-23437.81
2022-10-14T04:55:40.923Z,-23445.56
2022-10-14T04:58:07.641Z,-23432.25
2022-10-14T05:00:34.194Z,-23444.38
2022-10-14T05:03:00.716Z,-23449.94
2022-10-14T05:05:27.424Z,-23442.19
2022-10-14T05:07:53.968Z,-23445.09
2022-10-14T05:10:20.526Z,-23441.72
2022-10-14T05:12:47.891Z,-23448.97
2022-10-14T05:15:14.653Z,-23455.75
2022-10-14T05:17:44.533Z,-23461.56
2022-10-14T05:20:12.231Z,-23452.13
2022-10-14T05:22:39.180Z,-23450.41
2022-10-14T05:25:06.107Z,-23457.44
2022-10-14T05:27:32.854Z,-23447.28
2022-10-14T05:29:59.345Z,-23437.34
2022-10-14T05:32:25.821Z,-23429.59
2022-10-14T05:34:52.497Z,-23443.41
2022-10-14T05:37:18.992Z,-23437.34
2022-10-14T05:39:45.474Z,-23432.50
2022-10-14T05:42:12.201Z,-23419.88
2022-10-14T05:44:38.732Z,-23416.97
2022-10-14T05:47:05.262Z,-23420.38
2022-10-14T05:49:32.081Z,-23425.22
2022-10-14T05:51:58.786Z,-23430.56
2022-10-14T05:54:25.298Z,-23427.88
2022-10-14T05:56:51.912Z,-23425.22
2022-10-14T05:59:18.415Z,-23418.91
2022-10-14T06:01:44.954Z,-23430.06
2022-10-14T06:04:18.505Z,-23430.06
2022-10-14T06:06:45.221Z,-23446.53
2022-10-14T06:09:12.376Z,-23447.53
2022-10-14T06:11:39.718Z,-23451.88
2022-10-14T06:14:06.384Z,-23441.22
2022-10-14T06:16:33.059Z,-23437.34
2022-10-14T06:18:59.993Z,-23437.09
2022-10-14T06:21:26.538Z,-23441.22
2022-10-14T06:23:53.024Z,-23436.38
2022-10-14T06:26:20.029Z,-23441.22
2022-10-14T06:28:46.733Z,-23440.25
2022-10-14T06:31:13.386Z,-23460.13
2022-10-14T06:33:40.135Z,-23449.47
2022-10-14T06:36:07.191Z,-23456.72
2022-10-14T06:38:33.797Z,-23455.28
2022-10-14T06:41:00.552Z,-23458.19
2022-10-14T06:43:27.042Z,-23457.44
2022-10-14T06:45:57.222Z,-23448.47
2022-10-14T06:48:23.848Z,-23449.94
2022-10-14T06:50:50.350Z,-23453.31
2022-10-14T06:53:16.916Z,-23448.25
2022-10-14T06:55:43.513Z,-23445.09
2022-10-14T06:58:10.155Z,-23444.63
2022-10-14T07:00:37.463Z,-23444.13
2022-10-14T07:03:04.357Z,-23444.13
2022-10-14T07:05:31.009Z,-23442.19
2022-10-14T07:07:58.709Z,-23445.56
2022-10-14T07:10:25.909Z,-23455.28
2022-10-14T07:12:56.295Z,-23453.31
2022-10-14T07:15:23.269Z,-23451.16
2022-10-14T07:17:50.084Z,-23456.97
2022-10-14T07:20:16.657Z,-23454.31
2022-10-14T07:22:43.248Z,-23460.59
2022-10-14T07:25:11.069Z,-23464.25
2022-10-14T07:27:37.617Z,-23451.41
2022-10-14T07:30:05.742Z,-23453.09
2022-10-14T07:32:36.928Z,-23455.28
2022-10-14T07:35:04.185Z,-23468.13
2022-10-14T07:37:31.463Z,-23460.84
2022-10-14T07:39:58.454Z,-23474.19
2022-10-14T07:42:25.035Z,-23462.06
2022-10-14T07:44:54.059Z,-23458.19
2022-10-14T07:47:21.510Z,-23459.88
2022-10-14T07:49:48.247Z,-23480.97
2022-10-14T07:52:15.812Z,-23472.72
2022-10-14T07:54:42.867Z,-23475.63
2022-10-14T07:57:09.368Z,-23478.28
2022-10-14T07:59:35.924Z,-23480.00
2022-10-14T08:02:04.195Z,-23494.06
2022-10-14T08:04:33.235Z,-23496.50
2022-10-14T08:06:59.782Z,-23504.00
2022-10-14T08:11:53.860Z,-23500.13
2022-10-14T08:14:20.354Z,-23496.25
2022-10-14T08:16:47.940Z,-23485.81
2022-10-14T08:19:15.040Z,-23498.91
2022-10-14T08:21:42.780Z,-23492.13
2022-10-14T08:24:10.113Z,-23490.91
2022-10-14T08:26:39.106Z,-23501.56
2022-10-14T08:29:09.992Z,-23512.22
2022-10-14T08:31:36.985Z,-23505.69
2022-10-14T08:34:03.717Z,-23511.03
2022-10-14T08:36:30.190Z,-23507.63
2022-10-14T08:38:57.111Z,-23525.56
2022-10-14T08:41:26.557Z,-23519.25
2022-10-14T08:44:18.112Z,-23511.03
2022-10-14T08:46:57.646Z,-23515.41
2022-10-14T08:49:30.429Z,-23509.81
2022-10-14T08:52:09.540Z,-23521.69
2022-10-14T08:54:43.835Z,-23524.13
2022-10-14T08:57:23.308Z,-23537.22
2022-10-14T08:59:50.347Z,-23539.88
2022-10-14T09:02:39.200Z,-23532.38
2022-10-14T09:05:07.378Z,-23535.25
2022-10-14T09:07:36.959Z,-23533.34
2022-10-14T09:10:12.191Z,-23544.97
2022-10-14T09:12:40.185Z,-23543.28
2022-10-14T09:15:17.070Z,-23534.06
2022-10-14T09:17:46.584Z,-23541.81
2022-10-14T09:20:16.193Z,-23549.81
2022-10-14T09:22:43.058Z,-23542.31
2022-10-14T09:25:15.975Z,-23533.34
2022-10-14T09:27:42.973Z,-23541.09
2022-10-14T09:30:16.193Z,-23547.41
2022-10-14T09:32:46.506Z,-23558.56
2022-10-14T09:35:26.759Z,-23549.81
2022-10-14T09:37:53.618Z,-23544.72
2022-10-14T09:40:31.465Z,-23545.69
2022-10-14T09:43:10.662Z,-23551.28
2022-10-14T09:45:48.378Z,-23557.09
2022-10-14T09:48:29.427Z,-23560.97
2022-10-14T09:50:58.045Z,-23559.28
2022-10-14T09:53:42.196Z,-23555.63
2022-10-14T09:56:11.767Z,-23558.06
2022-10-14T09:58:56.460Z,-23562.19
2022-10-14T10:01:25.340Z,-23543.53
2022-10-14T10:03:53.941Z,-23547.88
2022-10-14T10:06:23.812Z,-23558.78
2022-10-14T10:08:54.357Z,-23564.38
2022-10-14T10:11:37.417Z,-23559.78
2022-10-14T10:14:16.226Z,-23563.88
2022-10-14T10:16:42.998Z,-23559.78
2022-10-14T10:19:30.264Z,-23564.63
2022-10-14T10:22:23.424Z,-23577.47
2022-10-14T10:25:10.601Z,-23564.63
2022-10-14T10:27:42.461Z,-23567.28
2022-10-14T10:30:15.081Z,-23558.56
2022-10-14T10:33:17.072Z,-23564.84
2022-10-14T10:36:13.679Z,-23554.69
2022-10-14T10:39:02.705Z,-23558.31
2022-10-14T10:42:02.717Z,-23562.44
2022-10-14T10:44:43.925Z,-23574.06
2022-10-14T10:47:32.658Z,-23590.09
2022-10-14T10:50:23.213Z,-23575.03
2022-10-14T10:53:25.974Z,-23585.22
2022-10-14T10:56:10.115Z,-23593.00
2022-10-14T10:59:00.008Z,-23581.09
2022-10-14T11:02:04.409Z,-23578.94
2022-10-14T11:17:48.468Z,-23594.69
2022-10-14T11:20:40.069Z,-23617.72
2022-10-14T11:23:15.635Z,-23618.94
2022-10-14T11:26:06.690Z,-23604.88
2022-10-14T11:28:51.762Z,-23591.78
2022-10-14T11:31:36.464Z,-23606.56
2022-10-14T11:34:39.208Z,-23590.09
2022-10-14T11:37:39.092Z,-23579.41
2022-10-14T11:40:23.919Z,-23568.75
2022-10-14T11:42:50.797Z,-23574.81
2022-10-14T11:45:24.405Z,-23584.75
2022-10-14T11:47:54.364Z,-23589.09
2022-10-14T11:50:29.310Z,-23574.56
2022-10-14T11:53:07.664Z,-23569.94
2022-10-14T11:55:39.711Z,-23584.97
2022-10-14T11:58:20.230Z,-23582.81
2022-10-14T12:00:51.542Z,-23589.09
2022-10-14T12:03:46.206Z,-23595.91
2022-10-14T12:06:27.330Z,-23583.78
2022-10-14T12:09:01.610Z,-23576.97
2022-10-14T12:11:30.920Z,-23582.81
2022-10-14T12:14:25.947Z,-23596.38
2022-10-14T12:16:53.421Z,-23601.97
2022-10-14T12:19:26.341Z,-23601.72
2022-10-14T12:22:25.929Z,-23599.53
2022-10-14T12:24:59.907Z,-23588.16
2022-10-14T12:27:28.616Z,-23577.94
2022-10-14T12:29:58.443Z,-23598.31
2022-10-14T12:32:27.764Z,-23590.56
2022-10-14T12:34:56.514Z,-23587.16
2022-10-14T12:37:32.369Z,-23591.28
2022-10-14T12:40:02.065Z,-23592.75
2022-10-14T12:42:34.891Z,-23594.19
2022-10-14T12:45:14.495Z,-23578.44
2022-10-14T12:47:41.800Z,-23587.16
2022-10-14T12:50:28.838Z,-23595.91
2022-10-14T12:52:59.025Z,-23591.28
2022-10-14T12:55:29.086Z,-23597.34
2022-10-14T12:57:59.558Z,-23601.25
2022-10-14T13:00:26.037Z,-23604.13
2022-10-14T13:03:00.292Z,-23603.66
2022-10-14T13:05:32.683Z,-23590.31
2022-10-14T13:08:19.508Z,-23593.47
2022-10-14T13:11:12.627Z,-23602.22
2022-10-14T13:13:42.437Z,-23610.22
2022-10-14T13:16:31.941Z,-23605.59
2022-10-14T13:18:59.913Z,-23602.69
2022-10-14T13:21:35.520Z,-23593.00
2022-10-14T13:24:15.844Z,-23584.75
2022-10-14T13:26:55.792Z,-23576.50
2022-10-14T13:29:50.443Z,-23575.53
2022-10-14T13:32:41.246Z,-23577.22
2022-10-14T13:35:57.550Z,-23585.22
2022-10-14T13:38:24.639Z,-23594.94
2022-10-14T13:40:53.920Z,-23598.81
2022-10-14T13:43:28.724Z,-23599.53
2022-10-14T13:46:02.500Z,-23594.69
2022-10-14T13:48:35.390Z,-23603.19
2022-10-14T13:51:36.158Z,-23605.13
2022-10-14T13:54:17.092Z,-23605.59
2022-10-14T13:57:13.771Z,-23603.19
2022-10-14T14:00:37.945Z,-23600.75
2022-10-14T14:02:34.028Z,-23609.72
2022-10-14T14:05:01.559Z,-23611.91
2022-10-14T14:08:14.545Z,-23608.03
2022-10-14T14:10:24.342Z,-23612.16
2022-10-14T14:12:51.131Z,-23618.69
2022-10-14T14:15:23.529Z,-23610.94
2022-10-14T14:17:50.353Z,-23608.03
2022-10-14T14:20:22.781Z,-23611.44
2022-10-14T14:22:50.397Z,-23611.91
2022-10-14T14:25:37.015Z,-23605.59
2022-10-14T14:28:06.955Z,-23606.56
2022-10-14T14:30:38.806Z,-23600.50
2022-10-14T14:33:11.089Z,-23608.75
2022-10-14T14:35:37.958Z,-23607.53
2022-10-14T14:38:04.546Z,-23604.13
2022-10-14T14:40:31.766Z,-23597.34
2022-10-14T14:43:02.097Z,-23596.88
2022-10-14T14:45:37.137Z,-23595.41
2022-10-14T14:48:06.426Z,-23588.16
2022-10-14T14:50:37.409Z,-23586.69
2022-10-14T14:53:10.613Z,-23592.50
2022-10-14T14:56:00.599Z,-23595.41
2022-10-14T14:58:32.738Z,-23600.03
2022-10-14T15:00:59.612Z,-23596.88
2022-10-14T15:03:28.606Z,-23592.50
2022-10-14T15:05:59.070Z,-23593.22
2022-10-14T15:08:28.919Z,-23597.34
2022-10-14T15:10:57.075Z,-23590.81
2022-10-14T15:13:32.727Z,-23590.09
2022-10-14T15:15:59.886Z,-23594.44
2022-10-14T15:18:28.601Z,-23599.78
2022-10-14T15:21:25.182Z,-23598.09
2022-10-14T15:23:53.345Z,-23604.13
2022-10-14T15:26:36.170Z,-23606.31
2022-10-14T15:29:08.869Z,-23610.44
2022-10-14T15:31:36.848Z,-23608.50
2022-10-14T15:34:04.303Z,-23606.81
2022-10-14T15:36:33.556Z,-23604.13
2022-10-14T15:39:01.557Z,-23603.66
2022-10-14T15:41:28.906Z,-23601.47
2022-10-14T15:43:55.634Z,-23593.47
2022-10-14T15:46:41.884Z,-23599.31
2022-10-14T15:49:19.926Z,-23596.38
2022-10-14T15:51:46.465Z,-23605.13
2022-10-14T15:54:13.061Z,-23602.22
2022-10-14T15:56:39.560Z,-23606.56
2022-10-14T15:59:06.434Z,-23611.44
2022-10-14T16:01:35.860Z,-23603.66
2022-10-14T16:04:03.840Z,-23603.19
2022-10-14T16:06:32.772Z,-23601.25
2022-10-14T16:08:59.446Z,-23596.38
2022-10-14T16:11:28.995Z,-23594.69
2022-10-14T16:13:56.141Z,-23590.09
2022-10-14T16:16:31.828Z,-23585.97
2022-10-14T16:18:59.919Z,-23582.31
2022-10-14T16:21:27.232Z,-23581.84
2022-10-14T16:23:54.435Z,-23587.66
2022-10-14T16:26:21.164Z,-23586.44
2022-10-14T16:28:47.923Z,-23580.38
2022-10-14T16:31:15.300Z,-23578.94
2022-10-14T16:33:44.851Z,-23580.38
2022-10-14T16:36:15.091Z,-23587.66
2022-10-14T16:38:41.644Z,-23584.25
2022-10-14T16:41:10.238Z,-23583.53
2022-10-14T16:43:37.056Z,-23579.91
2022-10-14T16:46:04.885Z,-23583.28
2022-10-14T16:48:33.183Z,-23583.78
2022-10-14T16:51:00.108Z,-23585.72
2022-10-14T16:53:40.725Z,-23575.28
2022-10-14T16:56:35.611Z,-23572.38
2022-10-14T16:59:02.423Z,-23578.19
2022-10-14T17:01:30.781Z,-23582.31
2022-10-14T17:03:57.899Z,-23583.28
2022-10-14T17:06:25.608Z,-23587.16
2022-10-14T17:08:52.618Z,-23585.47
2022-10-14T17:11:19.635Z,-23574.06
2022-10-14T17:13:46.389Z,-23573.59
2022-10-14T17:16:13.061Z,-23569.47
2022-10-14T17:18:39.581Z,-23576.50
2022-10-14T17:21:08.613Z,-23560.97
2022-10-14T17:23:36.685Z,-23565.84
2022-10-14T17:26:05.362Z,-23565.84
2022-10-14T17:28:32.999Z,-23570.69
2022-10-14T17:31:01.367Z,-23573.59
2022-10-14T17:33:28.250Z,-23570.44
2022-10-14T17:35:59.368Z,-23566.31
2022-10-14T17:38:30.246Z,-23558.06
2022-10-14T17:41:08.322Z,-23566.56
2022-10-14T17:43:35.646Z,-23564.84
2022-10-14T17:48:35.654Z,-23563.66
2022-10-14T17:51:02.480Z,-23564.38
2022-10-14T17:53:29.242Z,-23565.59
2022-10-14T17:55:57.755Z,-23568.00
2022-10-14T17:58:24.529Z,-23567.28
2022-10-14T18:00:51.002Z,-23568.25
2022-10-14T18:03:18.669Z,-23572.13
2022-10-14T18:05:48.749Z,-23568.97
2022-10-14T18:08:15.599Z,-23566.31
2022-10-14T18:10:42.235Z,-23559.53
2022-10-14T18:13:08.795Z,-23562.44
2022-10-14T18:15:36.278Z,-23559.28
2022-10-14T18:18:02.942Z,-23560.50
2022-10-14T18:20:29.514Z,-23562.91
2022-10-14T18:22:56.084Z,-23564.84
2022-10-14T18:25:22.716Z,-23562.19
2022-10-14T18:27:49.390Z,-23568.97
2022-10-14T18:30:15.869Z,-23570.94
2022-10-14T18:32:42.548Z,-23563.88
2022-10-14T18:35:09.468Z,-23560.50
2022-10-14T18:37:35.977Z,-23561.94
2022-10-14T18:40:02.545Z,-23566.31
2022-10-14T18:42:29.118Z,-23564.38
2022-10-14T18:44:56.356Z,-23557.09
2022-10-14T18:47:22.999Z,-23559.53
2022-10-14T18:49:50.999Z,-23557.09
2022-10-14T18:52:18.914Z,-23562.44
2022-10-14T18:54:45.555Z,-23557.59
2022-10-14T18:57:14.993Z,-23555.41
2022-10-14T18:59:41.882Z,-23556.13
2022-10-14T19:02:12.865Z,-23552.72
2022-10-14T19:04:39.689Z,-23555.41
2022-10-14T19:07:07.271Z,-23547.88
2022-10-14T19:09:34.266Z,-23543.03
2022-10-14T19:12:21.144Z,-23540.13
2022-10-14T19:14:47.822Z,-23533.81
2022-10-14T19:19:45.848Z,-23536.97
2022-10-14T19:22:12.513Z,-23531.88
2022-10-14T19:24:39.052Z,-23533.56
2022-10-14T19:27:05.710Z,-23525.81
2022-10-14T19:29:32.370Z,-23528.00
2022-10-14T19:31:59.174Z,-23524.13
2022-10-14T19:34:27.321Z,-23523.88
2022-10-14T19:36:54.358Z,-23523.41
2022-10-14T19:39:20.957Z,-23524.13
2022-10-14T19:41:47.566Z,-23513.94
2022-10-14T19:44:15.831Z,-23510.53
2022-10-14T19:46:43.183Z,-23505.22
2022-10-14T19:49:13.098Z,-23502.06
2022-10-14T19:51:39.998Z,-23500.84
2022-10-14T19:54:06.631Z,-23501.81
2022-10-14T19:56:33.181Z,-23511.53
2022-10-14T19:59:00.075Z,-23497.69
2022-10-14T20:01:28.619Z,-23494.28
2022-10-14T20:03:55.490Z,-23500.34
2022-10-14T20:06:23.394Z,-23491.63
2022-10-14T20:08:50.335Z,-23491.16
2022-10-14T20:11:19.123Z,-23487.75
2022-10-14T20:13:45.826Z,-23488.72
2022-10-14T20:16:13.321Z,-23495.50
2022-10-14T20:18:39.865Z,-23489.22
2022-10-14T20:21:08.038Z,-23491.63
2022-10-14T20:23:36.400Z,-23497.22
2022-10-14T20:26:05.372Z,-23486.06
2022-10-14T20:28:32.388Z,-23488.47
2022-10-14T20:30:59.110Z,-23492.59
2022-10-14T20:33:25.687Z,-23484.13
2022-10-14T20:36:03.323Z,-23496.97
2022-10-14T20:38:30.194Z,-23491.16
2022-10-14T20:41:06.594Z,-23468.84
2022-10-14T20:43:33.160Z,-23477.56
2022-10-14T20:45:59.739Z,-23472.72
2022-10-14T20:48:26.431Z,-23481.69
2022-10-14T20:50:52.926Z,-23475.63
2022-10-14T20:53:19.562Z,-23465.94
2022-10-14T20:55:46.120Z,-23464.97
2022-10-14T20:58:12.727Z,-23465.94
2022-10-14T21:00:39.297Z,-23473.22
2022-10-14T21:03:05.848Z,-23466.66
2022-10-14T21:05:36.230Z,-23471.25
2022-10-14T21:08:02.880Z,-23463.75
2022-10-14T21:10:29.531Z,-23457.22
2022-10-14T21:12:56.101Z,-23460.59
2022-10-14T21:15:26.762Z,-23461.56
2022-10-14T21:17:53.377Z,-23463.03
2022-10-14T21:20:19.881Z,-23468.84
2022-10-14T21:22:46.390Z,-23454.31
2022-10-14T21:25:13.070Z,-23460.13
2022-10-14T21:27:39.560Z,-23467.41
2022-10-14T21:30:06.812Z,-23454.78
2022-10-14T21:32:33.497Z,-23463.50
2022-10-14T21:35:00.012Z,-23454.31
2022-10-14T21:37:26.516Z,-23455.03
2022-10-14T21:39:53.101Z,-23456.72
2022-10-14T21:42:19.774Z,-23451.88
2022-10-14T21:44:46.457Z,-23450.19
2022-10-14T21:47:13.323Z,-23441.72
2022-10-14T21:49:39.882Z,-23446.06
2022-10-14T21:52:06.446Z,-23442.66
2022-10-14T21:54:33.135Z,-23444.63
2022-10-14T21:56:59.624Z,-23447.53
2022-10-14T21:59:26.258Z,-23440.25
2022-10-14T22:01:56.557Z,-23443.88
2022-10-14T22:04:23.057Z,-23460.13
2022-10-14T22:06:49.523Z,-23454.78
2022-10-14T22:09:16.222Z,-23448.47
2022-10-14T22:11:42.852Z,-23444.13
2022-10-14T22:14:17.643Z,-23446.53
2022-10-14T22:16:45.721Z,-23446.53
2022-10-14T22:19:13.229Z,-23439.75
2022-10-14T22:21:41.584Z,-23433.69
2022-10-14T22:24:09.180Z,-23442.19
2022-10-14T22:26:35.970Z,-23430.56
2022-10-14T22:29:10.529Z,-23436.13
2022-10-14T22:31:37.338Z,-23438.31
2022-10-14T22:34:06.228Z,-23448.00
2022-10-14T22:36:34.755Z,-23435.63
2022-10-14T22:39:02.867Z,-23441.94
2022-10-14T22:41:34.933Z,-23431.78
2022-10-14T22:44:02.536Z,-23438.06
2022-10-14T22:46:31.585Z,-23434.44
2022-10-14T22:48:59.107Z,-23439.75
2022-10-14T22:51:31.251Z,-23446.31
2022-10-14T22:53:58.250Z,-23444.13
2022-10-14T22:56:27.107Z,-23434.44
2022-10-14T22:58:54.568Z,-23425.22
2022-10-14T23:01:21.599Z,-23435.41
2022-10-14T23:03:48.298Z,-23427.66
2022-10-14T23:06:15.738Z,-23428.38
2022-10-14T23:08:42.796Z,-23431.03
2022-10-14T23:11:14.513Z,-23438.31
2022-10-14T23:13:41.442Z,-23427.16
2022-10-14T23:16:11.962Z,-23412.63
2022-10-14T23:18:39.390Z,-23420.88
2022-10-14T23:21:23.747Z,-23424.25
2022-10-14T23:23:51.394Z,-23409.22
2022-10-14T23:26:23.865Z,-23417.94
2022-10-14T23:28:55.435Z,-23409.72
2022-10-14T23:31:29.242Z,-23405.34
2022-10-14T23:33:58.661Z,-23403.41
2022-10-14T23:36:25.318Z,-23421.09
2022-10-14T23:38:52.577Z,-23406.06
2022-10-14T23:41:22.223Z,-23416.50
2022-10-14T23:43:50.126Z,-23413.09
2022-10-14T23:46:16.807Z,-23420.88
2022-10-14T23:48:43.445Z,-23411.16
2022-10-14T23:51:12.288Z,-23413.09
2022-10-14T23:53:38.874Z,-23409.22
2022-10-14T23:56:06.023Z,-23404.38
2022-10-14T23:58:33.457Z,-23408.75
